createdAt,value
2018-07-23T00:00:58.575Z,7.83
2018-07-23T00:03:26.270Z,7.87
2018-07-23T00:05:53.894Z,8.50
2018-07-23T00:08:21.334Z,8.00
2018-07-23T00:10:48.755Z,7.30
2018-07-23T00:13:17.227Z,7.63
2018-07-23T00:15:44.585Z,7.77
2018-07-23T00:18:11.950Z,7.80
2018-07-23T00:20:39.339Z,7.90
2018-07-23T00:23:07.070Z,7.60
2018-07-23T00:25:34.490Z,7.30
2018-07-23T00:28:01.830Z,7.70
2018-07-23T00:30:29.249Z,7.57
2018-07-23T00:32:56.590Z,7.40
2018-07-23T00:35:24.073Z,7.57
2018-07-23T00:37:51.540Z,7.77
2018-07-23T00:40:19.061Z,7.53
2018-07-23T00:42:46.480Z,7.37
2018-07-23T00:45:13.812Z,7.93
2018-07-23T00:47:41.253Z,7.60
2018-07-23T00:50:08.666Z,7.67
2018-07-23T00:52:36.396Z,9.67
2018-07-23T00:55:03.869Z,8.33
2018-07-23T00:57:31.235Z,8.40
2018-07-23T00:59:58.717Z,9.03
2018-07-23T01:02:26.127Z,12.40
2018-07-23T01:04:53.550Z,7.90
2018-07-23T01:07:20.970Z,7.20
2018-07-23T01:09:48.526Z,8.30
2018-07-23T01:12:28.642Z,7.70
2018-07-23T01:14:56.519Z,8.90
2018-07-23T01:17:23.949Z,8.10
2018-07-23T01:19:52.314Z,7.23
2018-07-23T01:22:20.101Z,8.37
2018-07-23T01:24:47.706Z,8.40
2018-07-23T01:27:15.137Z,7.77
2018-07-23T01:29:42.506Z,7.50
2018-07-23T01:32:09.887Z,8.00
2018-07-23T01:34:37.374Z,8.70
2018-07-23T01:37:04.922Z,8.40
2018-07-23T01:39:36.743Z,8.33
2018-07-23T01:42:04.910Z,8.60
2018-07-23T01:44:32.443Z,8.67
2018-07-23T01:46:59.878Z,8.13
2018-07-23T01:49:27.274Z,8.60
2018-07-23T01:51:54.645Z,9.60
2018-07-23T01:54:22.277Z,8.60
2018-07-23T01:56:49.666Z,8.77
2018-07-23T01:59:17.295Z,8.30
2018-07-23T02:01:44.688Z,8.03
2018-07-23T02:04:12.079Z,8.60
2018-07-23T02:06:39.410Z,8.70
2018-07-23T02:09:08.507Z,10.23
2018-07-23T02:11:35.908Z,9.33
2018-07-23T02:14:03.364Z,9.30
2018-07-23T02:16:30.800Z,9.27
2018-07-23T02:18:58.115Z,8.40
2018-07-23T02:21:25.582Z,10.30
2018-07-23T02:23:53.070Z,9.00
2018-07-23T02:26:20.469Z,8.67
2018-07-23T02:28:47.877Z,11.00
2018-07-23T02:31:15.281Z,9.50
2018-07-23T02:33:42.620Z,10.03
2018-07-23T02:36:10.031Z,9.70
2018-07-23T02:38:37.406Z,9.80
2018-07-23T02:41:04.917Z,14.33
2018-07-23T02:43:32.311Z,9.90
2018-07-23T02:45:59.682Z,11.10
2018-07-23T02:48:27.119Z,10.97
2018-07-23T02:50:54.579Z,11.97
2018-07-23T02:53:21.994Z,10.80
2018-07-23T02:55:49.495Z,10.80
2018-07-23T02:58:16.951Z,10.60
2018-07-23T03:00:44.417Z,11.47
2018-07-23T03:03:11.814Z,10.77
2018-07-23T03:05:39.261Z,14.10
2018-07-23T03:08:06.794Z,12.30
2018-07-23T03:10:34.277Z,13.30
2018-07-23T03:13:01.751Z,12.10
2018-07-23T03:15:29.167Z,13.80
2018-07-23T03:17:56.736Z,12.93
2018-07-23T03:20:26.457Z,14.23
2018-07-23T03:22:56.747Z,14.63
2018-07-23T03:25:24.292Z,13.23
2018-07-23T03:27:51.786Z,13.07
2018-07-23T03:30:19.266Z,13.53
2018-07-23T03:32:46.671Z,13.60
2018-07-23T03:35:14.103Z,12.80
2018-07-23T03:37:41.587Z,12.70
2018-07-23T03:40:09.062Z,14.50
2018-07-23T03:42:36.522Z,13.37
2018-07-23T03:45:04.615Z,13.23
2018-07-23T03:47:32.091Z,12.27
2018-07-23T03:49:59.514Z,12.90
2018-07-23T03:52:27.746Z,13.90
2018-07-23T03:54:55.130Z,14.30
2018-07-23T03:57:22.630Z,12.17
2018-07-23T03:59:50.077Z,13.40
2018-07-23T04:02:17.709Z,13.63
2018-07-23T04:04:45.176Z,14.13
2018-07-23T04:07:12.626Z,12.83
2018-07-23T04:09:40.107Z,16.43
2018-07-23T04:12:07.586Z,13.07
2018-07-23T04:14:34.956Z,13.97
2018-07-23T04:17:02.388Z,13.10
2018-07-23T04:19:29.965Z,16.20
2018-07-23T04:21:57.985Z,13.60
2018-07-23T04:24:36.610Z,12.70
2018-07-23T04:27:04.142Z,12.67
2018-07-23T04:29:31.568Z,13.77
2018-07-23T04:31:58.972Z,15.03
2018-07-23T04:34:26.434Z,12.93
2018-07-23T04:36:53.930Z,12.67
2018-07-23T04:39:21.284Z,13.23
2018-07-23T04:41:48.675Z,15.50
2018-07-23T04:44:16.144Z,14.70
2018-07-23T04:46:43.598Z,13.40
2018-07-23T04:49:11.059Z,13.30
2018-07-23T04:51:38.450Z,13.33
2018-07-23T04:54:05.826Z,12.90
2018-07-23T04:56:33.482Z,14.53
2018-07-23T04:59:00.937Z,12.80
2018-07-23T05:01:28.923Z,14.83
2018-07-23T05:03:56.374Z,12.40
2018-07-23T05:06:23.870Z,12.90
2018-07-23T05:08:51.546Z,14.43
2018-07-23T05:11:18.945Z,14.20
2018-07-23T05:13:46.462Z,15.57
2018-07-23T05:16:13.850Z,14.70
2018-07-23T05:18:41.390Z,14.27
2018-07-23T05:21:08.802Z,18.50
2018-07-23T05:23:36.341Z,14.83
2018-07-23T05:26:03.810Z,13.27
2018-07-23T05:28:31.233Z,13.10
2018-07-23T05:31:11.899Z,14.50
2018-07-23T05:34:02.516Z,15.00
2018-07-23T05:36:30.168Z,16.40
2018-07-23T05:38:57.823Z,15.10
2018-07-23T05:41:25.494Z,16.07
2018-07-23T05:43:53.156Z,14.97
2018-07-23T05:46:20.822Z,14.20
2018-07-23T05:48:48.447Z,16.67
2018-07-23T05:51:16.331Z,13.87
2018-07-23T05:53:43.965Z,15.93
2018-07-23T05:56:11.626Z,14.33
2018-07-23T05:58:39.277Z,14.53
2018-07-23T06:01:07.275Z,17.77
2018-07-23T06:03:35.016Z,15.17
2018-07-23T06:06:03.097Z,13.83
2018-07-23T06:08:30.730Z,15.50
2018-07-23T06:10:58.333Z,14.30
2018-07-23T06:13:25.979Z,12.43
2018-07-23T06:15:53.550Z,14.00
2018-07-23T06:18:21.190Z,12.73
2018-07-23T06:20:48.803Z,12.17
2018-07-23T06:23:16.494Z,11.67
2018-07-23T06:25:44.126Z,11.80
2018-07-23T06:28:11.738Z,11.80
2018-07-23T06:30:39.390Z,14.13
2018-07-23T06:33:07.130Z,10.70
2018-07-23T06:35:34.846Z,12.93
2018-07-23T06:38:02.967Z,13.87
2018-07-23T06:40:30.749Z,13.07
2018-07-23T06:42:58.347Z,11.43
2018-07-23T06:45:25.951Z,11.93
2018-07-23T06:47:53.558Z,11.30
2018-07-23T06:50:22.714Z,13.27
2018-07-23T06:52:50.362Z,9.97
2018-07-23T06:55:17.978Z,12.53
2018-07-23T06:57:45.602Z,11.90
2018-07-23T07:00:13.289Z,13.00
2018-07-23T07:02:40.921Z,12.73
2018-07-23T07:05:08.542Z,9.27
2018-07-23T07:07:36.241Z,10.60
2018-07-23T07:10:04.190Z,9.07
2018-07-23T07:12:31.851Z,9.80
2018-07-23T07:14:59.476Z,10.70
2018-07-23T07:17:27.159Z,9.30
2018-07-23T07:20:00.713Z,10.13
2018-07-23T07:22:28.200Z,9.57
2018-07-23T07:24:55.822Z,10.40
2018-07-23T07:27:23.916Z,9.63
2018-07-23T07:29:51.561Z,7.43
2018-07-23T07:32:19.293Z,11.13
2018-07-23T07:34:46.958Z,8.93
2018-07-23T07:37:14.994Z,7.93
2018-07-23T07:39:43.444Z,9.00
2018-07-23T07:42:11.136Z,7.23
2018-07-23T07:44:39.014Z,8.30
2018-07-23T07:47:06.738Z,7.40
2018-07-23T07:49:34.812Z,7.03
2018-07-23T07:52:02.506Z,6.63
2018-07-23T07:54:30.156Z,7.10
2018-07-23T07:56:58.000Z,5.70
2018-07-23T07:59:25.765Z,6.20
2018-07-23T08:01:53.362Z,6.57
2018-07-23T08:04:21.091Z,5.97
2018-07-23T08:06:48.714Z,6.30
2018-07-23T08:09:16.351Z,6.50
2018-07-23T08:11:45.087Z,5.50
2018-07-23T08:14:12.743Z,5.77
2018-07-23T08:16:40.425Z,5.83
2018-07-23T08:19:08.026Z,6.27
2018-07-23T08:21:40.641Z,6.87
2018-07-23T08:24:08.225Z,7.20
2018-07-23T08:26:35.862Z,6.53
2018-07-23T08:29:03.521Z,7.07
2018-07-23T08:31:31.192Z,6.97
2018-07-23T08:34:05.606Z,6.70
2018-07-23T08:36:33.375Z,6.80
2018-07-23T08:39:00.977Z,7.00
2018-07-23T08:41:28.602Z,6.90
2018-07-23T08:43:56.263Z,5.73
2018-07-23T08:46:27.775Z,6.70
2018-07-23T08:48:55.431Z,9.30
2018-07-23T08:51:23.028Z,8.10
2018-07-23T08:53:50.650Z,6.50
2018-07-23T08:56:18.338Z,6.80
2018-07-23T08:58:51.456Z,6.53
2018-07-23T09:01:19.103Z,6.60
2018-07-23T09:03:46.786Z,6.00
2018-07-23T09:06:14.390Z,9.70
2018-07-23T09:08:42.122Z,8.53
2018-07-23T09:11:09.554Z,7.13
2018-07-23T09:13:40.131Z,6.97
2018-07-23T09:16:07.948Z,7.23
2018-07-23T09:18:35.514Z,7.67
2018-07-23T09:21:03.202Z,6.63
2018-07-23T09:23:30.773Z,6.97
2018-07-23T09:25:58.405Z,10.63
2018-07-23T09:28:29.895Z,6.97
2018-07-23T09:30:57.540Z,8.53
2018-07-23T09:33:25.265Z,8.00
2018-07-23T09:35:53.226Z,7.17
2018-07-23T09:38:21.678Z,7.73
2018-07-23T09:40:49.299Z,8.27
2018-07-23T09:43:16.997Z,6.67
2018-07-23T09:45:44.642Z,6.90
2018-07-23T09:48:12.250Z,8.10
2018-07-23T09:50:39.810Z,8.50
2018-07-23T09:53:07.357Z,7.77
2018-07-23T09:55:34.993Z,6.37
2018-07-23T09:58:02.542Z,6.70
2018-07-23T10:00:35.958Z,6.80
2018-07-23T10:03:03.749Z,6.97
2018-07-23T10:05:31.234Z,7.10
2018-07-23T10:07:58.794Z,5.73
2018-07-23T10:10:26.400Z,5.40
2018-07-23T10:12:53.978Z,7.57
2018-07-23T10:15:21.578Z,6.20
2018-07-23T10:17:49.166Z,5.10
2018-07-23T10:20:16.803Z,5.37
2018-07-23T10:22:44.347Z,6.47
2018-07-23T10:25:11.949Z,5.27
2018-07-23T10:27:39.555Z,5.47
2018-07-23T10:30:07.135Z,6.10
2018-07-23T10:32:35.139Z,6.90
2018-07-23T10:35:02.878Z,5.83
2018-07-23T10:37:30.438Z,6.80
2018-07-23T10:39:58.106Z,6.90
2018-07-23T10:42:25.754Z,5.87
2018-07-23T10:44:54.054Z,6.23
2018-07-23T10:47:21.750Z,7.17
2018-07-23T10:49:49.460Z,7.73
2018-07-23T10:52:17.052Z,5.70
2018-07-23T10:54:44.631Z,6.07
2018-07-23T10:57:12.478Z,6.40
2018-07-23T10:59:40.002Z,7.97
2018-07-23T11:02:07.606Z,7.07
2018-07-23T11:04:35.230Z,7.80
2018-07-23T11:07:02.837Z,5.90
2018-07-23T11:09:30.445Z,6.00
2018-07-23T11:11:58.007Z,7.53
2018-07-23T11:14:25.620Z,6.30
2018-07-23T11:16:53.207Z,6.70
2018-07-23T11:19:20.928Z,7.77
2018-07-23T11:21:48.405Z,5.80
2018-07-23T11:24:16.002Z,6.93
2018-07-23T11:26:43.619Z,8.50
2018-07-23T11:29:11.142Z,6.27
2018-07-23T11:31:38.739Z,7.83
2018-07-23T11:34:06.489Z,7.60
2018-07-23T11:36:34.365Z,8.73
2018-07-23T11:39:02.173Z,7.73
2018-07-23T11:41:29.693Z,8.70
2018-07-23T11:43:57.259Z,8.10
2018-07-23T11:46:25.253Z,6.37
2018-07-23T11:48:52.386Z,6.80
2018-07-23T11:51:19.994Z,7.67
2018-07-23T11:53:47.658Z,7.67
2018-07-23T11:56:15.279Z,7.07
2018-07-23T11:58:42.969Z,8.13
2018-07-23T12:01:10.582Z,7.70
2018-07-23T12:03:38.285Z,7.83
2018-07-23T12:06:05.893Z,10.63
2018-07-23T12:08:33.574Z,6.80
2018-07-23T12:11:01.279Z,8.10
2018-07-23T12:13:28.884Z,8.73
2018-07-23T12:15:56.585Z,8.40
2018-07-23T12:18:24.199Z,9.07
2018-07-23T12:20:51.749Z,8.80
2018-07-23T12:23:19.554Z,9.30
2018-07-23T12:25:47.148Z,10.77
2018-07-23T12:28:14.791Z,11.10
2018-07-23T12:30:42.445Z,13.10
2018-07-23T12:33:10.079Z,10.07
2018-07-23T12:35:37.696Z,10.73
2018-07-23T12:38:05.304Z,13.20
2018-07-23T12:40:32.903Z,12.03
2018-07-23T12:43:00.594Z,10.00
2018-07-23T12:45:28.218Z,12.97
2018-07-23T12:47:55.925Z,13.93
2018-07-23T12:50:23.570Z,10.40
2018-07-23T12:52:51.181Z,9.00
2018-07-23T12:55:18.808Z,10.87
2018-07-23T12:57:46.430Z,9.70
2018-07-23T13:00:13.980Z,10.73
2018-07-23T13:02:41.534Z,10.43
2018-07-23T13:05:09.130Z,10.00
2018-07-23T13:07:36.682Z,8.90
2018-07-23T13:10:07.718Z,10.33
2018-07-23T13:12:35.259Z,9.53
2018-07-23T13:15:02.670Z,8.60
2018-07-23T13:17:30.052Z,10.47
2018-07-23T13:19:57.435Z,10.30
2018-07-23T13:22:31.037Z,9.13
2018-07-23T13:24:58.411Z,9.03
2018-07-23T13:27:25.758Z,8.47
2018-07-23T13:29:53.087Z,9.60
2018-07-23T13:32:20.592Z,9.10
2018-07-23T13:34:47.925Z,7.90
2018-07-23T13:37:16.574Z,8.77
2018-07-23T13:39:43.954Z,8.30
2018-07-23T13:42:11.354Z,6.57
2018-07-23T13:44:38.769Z,7.83
2018-07-23T13:47:06.344Z,9.67
2018-07-23T13:49:33.798Z,7.60
2018-07-23T13:52:01.182Z,7.00
2018-07-23T13:54:30.394Z,6.27
2018-07-23T13:56:57.633Z,7.90
2018-07-23T13:59:25.028Z,7.50
2018-07-23T14:01:52.427Z,6.77
2018-07-23T14:04:27.909Z,8.20
2018-07-23T14:06:55.350Z,7.03
2018-07-23T14:09:22.719Z,7.47
2018-07-23T14:11:50.101Z,8.13
2018-07-23T14:14:17.555Z,7.60
2018-07-23T14:16:45.094Z,7.20
2018-07-23T14:19:12.521Z,7.20
2018-07-23T14:21:39.962Z,7.90
2018-07-23T14:24:07.404Z,7.60
2018-07-23T14:26:34.985Z,7.20
2018-07-23T14:29:04.682Z,6.93
2018-07-23T14:31:32.312Z,6.93
2018-07-23T14:34:01.134Z,7.60
2018-07-23T14:36:28.556Z,7.83
2018-07-23T14:38:55.974Z,8.10
2018-07-23T14:41:23.454Z,8.17
2018-07-23T14:43:52.096Z,8.87
2018-07-23T14:46:19.505Z,8.20
2018-07-23T14:48:46.903Z,8.10
2018-07-23T14:51:14.386Z,8.80
2018-07-23T14:53:42.759Z,9.37
2018-07-23T14:56:10.179Z,8.00
2018-07-23T14:58:37.585Z,8.10
2018-07-23T15:01:05.211Z,7.83
2018-07-23T15:03:32.682Z,8.33
2018-07-23T15:06:00.217Z,8.67
2018-07-23T15:08:27.654Z,9.67
2018-07-23T15:10:55.074Z,9.43
2018-07-23T15:13:22.490Z,10.50
2018-07-23T15:15:50.162Z,8.40
2018-07-23T15:18:17.579Z,8.50
2018-07-23T15:20:45.170Z,8.93
2018-07-23T15:23:13.119Z,9.60
2018-07-23T15:25:40.559Z,9.83
2018-07-23T15:28:07.973Z,8.17
2018-07-23T15:30:35.366Z,7.93
2018-07-23T15:33:02.845Z,7.80
2018-07-23T15:35:30.243Z,7.30
2018-07-23T15:37:58.180Z,6.70
2018-07-23T15:40:25.908Z,6.70
2018-07-23T15:42:53.642Z,7.30
2018-07-23T15:45:21.176Z,6.00
2018-07-23T15:47:48.499Z,6.90
2018-07-23T15:50:15.942Z,7.60
2018-07-23T15:52:43.398Z,8.60
2018-07-23T15:55:10.817Z,6.43
2018-07-23T15:57:38.219Z,6.50
2018-07-23T16:00:06.166Z,6.80
2018-07-23T16:02:33.715Z,6.27
2018-07-23T16:05:01.142Z,7.53
2018-07-23T16:07:28.523Z,6.40
2018-07-23T16:09:56.022Z,6.20
2018-07-23T16:12:23.383Z,6.20
2018-07-23T16:14:50.744Z,5.27
2018-07-23T16:17:18.205Z,5.53
2018-07-23T16:19:45.665Z,4.93
2018-07-23T16:22:13.117Z,6.20
2018-07-23T16:24:40.551Z,5.57
2018-07-23T16:27:07.981Z,5.50
2018-07-23T16:29:35.545Z,5.80
2018-07-23T16:32:02.978Z,5.40
2018-07-23T16:34:30.359Z,5.57
2018-07-23T16:36:58.098Z,5.37
2018-07-23T16:39:25.450Z,5.70
2018-07-23T16:41:53.396Z,5.40
2018-07-23T16:44:20.902Z,5.80
2018-07-23T16:46:48.355Z,5.97
2018-07-23T16:49:15.653Z,6.43
2018-07-23T16:51:43.088Z,6.33
2018-07-23T16:54:10.564Z,6.23
2018-07-23T16:56:38.037Z,5.47
2018-07-23T16:59:05.403Z,5.50
2018-07-23T17:01:32.825Z,5.23
2018-07-23T17:04:00.673Z,8.00
2018-07-23T17:06:28.332Z,5.17
2018-07-23T17:08:55.750Z,4.93
2018-07-23T17:11:23.206Z,4.50
2018-07-23T17:13:50.725Z,6.37
2018-07-23T17:16:18.117Z,5.77
2018-07-23T17:18:45.575Z,5.40
2018-07-23T17:21:13.601Z,5.83
2018-07-23T17:23:53.946Z,5.27
2018-07-23T17:26:23.350Z,4.57
2018-07-23T17:28:53.735Z,5.37
2018-07-23T17:31:21.718Z,5.40
2018-07-23T17:33:49.165Z,4.20
2018-07-23T17:36:16.603Z,7.00
2018-07-23T17:38:47.764Z,4.57
2018-07-23T17:41:15.170Z,6.10
2018-07-23T17:43:42.541Z,5.00
2018-07-23T17:46:09.926Z,4.20
2018-07-23T17:48:42.920Z,6.57
2018-07-23T17:51:10.691Z,4.80
2018-07-23T17:53:38.109Z,4.70
2018-07-23T17:56:05.614Z,5.87
2018-07-23T17:58:32.976Z,4.50
2018-07-23T18:01:05.935Z,4.53
2018-07-23T18:03:33.350Z,4.33
2018-07-23T18:06:01.022Z,5.30
2018-07-23T18:08:28.761Z,4.70
2018-07-23T18:10:57.105Z,4.70
2018-07-23T18:13:24.970Z,4.67
2018-07-23T18:15:52.462Z,5.03
2018-07-23T18:18:19.934Z,6.27
2018-07-23T18:20:47.301Z,5.53
2018-07-23T18:23:14.644Z,7.00
2018-07-23T18:25:42.135Z,5.60
2018-07-23T18:28:09.457Z,5.27
2018-07-23T18:30:36.842Z,5.07
2018-07-23T18:33:04.323Z,5.17
2018-07-23T18:35:31.700Z,4.53
2018-07-23T18:37:59.118Z,4.80
2018-07-23T18:40:26.549Z,4.43
2018-07-23T18:42:53.977Z,5.63
2018-07-23T18:45:21.550Z,6.63
2018-07-23T18:47:49.109Z,4.50
2018-07-23T18:50:16.579Z,4.60
2018-07-23T18:52:43.986Z,4.37
2018-07-23T18:55:11.390Z,5.47
2018-07-23T18:57:38.867Z,4.70
2018-07-23T19:00:06.405Z,4.97
2018-07-23T19:02:34.030Z,5.70
2018-07-23T19:05:01.454Z,4.50
2018-07-23T19:07:28.793Z,5.00
2018-07-23T19:09:56.150Z,4.27
2018-07-23T19:12:23.550Z,5.50
2018-07-23T19:14:51.395Z,5.23
2018-07-23T19:17:18.820Z,4.87
2018-07-23T19:19:46.281Z,7.77
2018-07-23T19:22:13.637Z,6.30
2018-07-23T19:24:41.029Z,7.13
2018-07-23T19:27:08.471Z,5.10
2018-07-23T19:29:35.807Z,5.00
2018-07-23T19:32:03.206Z,5.70
2018-07-23T19:34:30.561Z,5.57
2018-07-23T19:36:57.920Z,5.13
2018-07-23T19:39:25.325Z,6.00
2018-07-23T19:41:52.711Z,5.50
2018-07-23T19:44:20.065Z,5.40
2018-07-23T19:46:47.618Z,5.40
2018-07-23T19:49:14.987Z,5.33
2018-07-23T19:51:42.422Z,5.90
2018-07-23T19:54:10.179Z,15.60
2018-07-23T19:56:37.562Z,6.30
2018-07-23T19:59:05.036Z,5.47
2018-07-23T20:01:32.697Z,6.37
2018-07-23T20:04:00.307Z,7.43
2018-07-23T20:06:28.675Z,7.57
2018-07-23T20:08:56.980Z,6.33
2018-07-23T20:11:25.117Z,6.37
2018-07-23T20:13:52.507Z,6.77
2018-07-23T20:16:20.193Z,6.00
2018-07-23T20:18:47.668Z,6.70
2018-07-23T20:21:15.154Z,6.30
2018-07-23T20:23:42.848Z,6.63
2018-07-23T20:26:10.236Z,7.80
2018-07-23T20:28:37.790Z,5.67
2018-07-23T20:31:05.618Z,7.43
2018-07-23T20:33:33.322Z,6.60
2018-07-23T20:36:01.291Z,6.37
2018-07-23T20:38:28.871Z,7.40
2018-07-23T20:40:56.325Z,6.87
2018-07-23T20:43:25.526Z,7.30
2018-07-23T20:45:53.115Z,7.00
2018-07-23T20:48:21.261Z,7.77
2018-07-23T20:50:48.697Z,7.77
2018-07-23T20:53:16.193Z,8.13
2018-07-23T20:55:43.657Z,7.83
2018-07-23T20:58:11.095Z,7.30
2018-07-23T21:00:38.542Z,7.70
2018-07-23T21:03:06.095Z,8.10
2018-07-23T21:05:34.230Z,7.57
2018-07-23T21:08:01.619Z,7.80
2018-07-23T21:10:28.961Z,7.87
2018-07-23T21:12:56.317Z,7.13
2018-07-23T21:15:23.705Z,8.57
2018-07-23T21:17:51.089Z,7.43
2018-07-23T21:20:18.480Z,9.10
2018-07-23T21:22:45.946Z,8.07
2018-07-23T21:25:13.415Z,7.67
2018-07-23T21:27:40.794Z,7.87
2018-07-23T21:30:08.190Z,7.50
2018-07-23T21:32:35.907Z,7.90
2018-07-23T21:35:04.165Z,8.03
2018-07-23T21:37:31.501Z,7.90
2018-07-23T21:39:58.958Z,8.73
2018-07-23T21:42:26.350Z,8.37
2018-07-23T21:44:53.769Z,7.70
2018-07-23T21:47:21.131Z,8.10
2018-07-23T21:49:48.510Z,8.73
2018-07-23T21:52:16.030Z,8.30
2018-07-23T21:54:43.382Z,8.67
2018-07-23T21:57:10.829Z,8.30
2018-07-23T21:59:38.725Z,8.53
2018-07-23T22:02:06.268Z,8.50
2018-07-23T22:04:33.840Z,9.30
2018-07-23T22:07:01.398Z,9.97
2018-07-23T22:09:28.787Z,9.90
2018-07-23T22:11:56.669Z,8.57
2018-07-23T22:14:24.077Z,9.50
2018-07-23T22:16:51.464Z,9.60
2018-07-23T22:19:18.857Z,10.40
2018-07-23T22:21:46.309Z,9.97
2018-07-23T22:24:13.752Z,9.97
2018-07-23T22:26:41.158Z,9.57
2018-07-23T22:29:08.640Z,11.43
2018-07-23T22:31:36.258Z,10.80
2018-07-23T22:34:03.802Z,9.27
2018-07-23T22:36:31.199Z,10.23
2018-07-23T22:38:58.594Z,9.73
2018-07-23T22:41:26.001Z,9.97
2018-07-23T22:43:53.535Z,10.20
2018-07-23T22:46:20.926Z,10.00
2018-07-23T22:48:48.367Z,10.37
2018-07-23T22:51:15.788Z,10.67
2018-07-23T22:53:43.288Z,11.03
2018-07-23T22:56:12.722Z,10.60
2018-07-23T22:58:40.126Z,10.47
2018-07-23T23:01:10.089Z,10.40
2018-07-23T23:03:37.484Z,10.30
2018-07-23T23:06:05.432Z,10.37
2018-07-23T23:08:32.810Z,11.13
2018-07-23T23:11:00.209Z,10.03
2018-07-23T23:13:27.586Z,10.17
2018-07-23T23:15:54.983Z,10.50
2018-07-23T23:18:22.447Z,9.57
2018-07-23T23:20:49.843Z,10.90
2018-07-23T23:23:17.330Z,11.53
2018-07-23T23:25:44.770Z,10.50
2018-07-23T23:28:12.194Z,10.60
2018-07-23T23:30:39.651Z,10.73
2018-07-23T23:33:07.047Z,12.53
2018-07-23T23:35:34.624Z,9.53
2018-07-23T23:38:02.267Z,9.80
2018-07-23T23:40:29.750Z,10.47
2018-07-23T23:42:57.459Z,10.83
2018-07-23T23:45:24.817Z,10.83
2018-07-23T23:47:52.179Z,9.97
2018-07-23T23:50:19.587Z,11.40
2018-07-23T23:52:46.952Z,12.00
2018-07-23T23:55:14.357Z,12.67
2018-07-23T23:57:41.743Z,12.17
